Time;durP1;ratioP1;P1;durP2;ratioP2;P2;SDS_P1;SDS_P2;PMS_P1;PMS_P2;Temp;Humidity;BMP_temperature;BMP_pressure;BME280_temperature;BME280_humidity;BME280_pressure;Samples;Min_cycle;Max_cycle;Signal;HPM_P1;HPM_P2
2021/12/11 00:02:19;;;;;;;1.73;0.85;;;;;;;9.89;44.92;102180.19;4969753;28;20042;-70
2021/12/11 00:04:50;;;;;;;3.70;0.80;;;;;;;9.64;49.89;102185.16;4975159;28;20031;-70
2021/12/11 00:07:19;;;;;;;1.20;0.70;;;;;;;9.55;45.85;102178.84;4978247;28;20050;-73
2021/12/11 00:10:17;;;;;;;3.60;1.10;;;;;;;9.44;48.34;102187.53;4966856;28;20113;-74
2021/12/11 00:12:46;;;;;;;;;;;;;;;9.32;50.41;102189.94;4953475;28;20100;-78
2021/12/11 00:15:22;;;;;;;2.90;1.33;;;;;;;9.27;49.18;102189.00;4973553;28;19929;-67
2021/12/11 00:17:55;;;;;;;7.13;2.97;;;;;;;9.13;49.66;102197.56;4979040;28;20173;-73
2021/12/11 00:20:27;;;;;;;3.67;1.30;;;;;;;8.99;50.30;102197.34;4976608;28;20042;-70
2021/12/11 00:22:54;;;;;;;3.90;1.20;;;;;;;8.88;51.30;102198.03;4974346;28;20061;-81
2021/12/11 00:25:20;;;;;;;2.58;1.60;;;;;;;8.75;52.14;102207.44;4975264;28;20367;-71
2021/12/11 00:27:50;;;;;;;4.72;1.10;;;;;;;8.63;53.14;102209.00;4977209;28;20022;-71
2021/12/11 00:30:35;;;;;;;4.07;1.02;;;;;;;8.51;54.41;102220.22;4973310;28;20390;-71
2021/12/11 00:33:09;;;;;;;2.60;0.90;;;;;;;8.39;54.84;102214.63;4984842;28;20038;-70
2021/12/11 00:35:39;;;;;;;4.07;0.90;;;;;;;8.27;55.20;102222.31;4971202;28;20027;-70
2021/12/11 00:38:09;;;;;;;2.05;0.93;;;;;;;8.08;56.89;102226.31;4962315;28;20027;-70
2021/12/11 00:40:37;;;;;;;1.63;0.93;;;;;;;7.91;59.23;102228.56;4972874;28;20371;-70
2021/12/11 00:43:07;;;;;;;1.75;0.90;;;;;;;7.74;58.70;102231.69;4956762;29;20035;-71
2021/12/11 00:45:37;;;;;;;2.88;1.00;;;;;;;7.67;58.39;102217.50;4957950;28;20055;-70
2021/12/11 00:48:16;;;;;;;5.53;1.27;;;;;;;7.58;59.10;102222.56;4957638;29;20082;-70
2021/12/11 00:50:59;;;;;;;3.10;1.13;;;;;;;7.50;59.70;102225.00;4957459;28;20447;-70
2021/12/11 00:53:27;;;;;;;2.92;1.30;;;;;;;7.35;60.48;102230.81;4957740;28;20031;-69
2021/12/11 00:55:56;;;;;;;2.03;1.13;;;;;;;7.25;60.81;102243.69;4956543;28;20024;-69
2021/12/11 00:58:32;;;;;;;2.35;1.15;;;;;;;7.15;60.53;102239.94;4962266;28;20089;-69
2021/12/11 01:01:08;;;;;;;3.72;1.05;;;;;;;7.04;61.38;102247.53;4960926;28;20030;-70
2021/12/11 01:03:54;;;;;;;1.90;0.95;;;;;;;6.91;62.03;102243.72;4968908;28;20039;-68
2021/12/11 01:06:36;;;;;;;4.20;1.17;;;;;;;6.81;62.58;102252.19;4956090;28;20352;-69
2021/12/11 01:09:11;;;;;;;4.28;1.23;;;;;;;6.70;63.03;102258.88;4970619;28;20050;-68
2021/12/11 01:11:50;;;;;;;6.13;1.13;;;;;;;6.56;64.69;102256.75;4957191;28;20487;-69
2021/12/11 01:14:51;;;;;;;2.38;1.08;;;;;;;6.46;64.71;102260.88;4959800;28;20040;-69
2021/12/11 01:17:46;;;;;;;5.45;1.30;;;;;;;6.33;65.97;102270.13;4956031;29;20047;-68
2021/12/11 01:20:36;;;;;;;2.10;1.17;;;;;;;6.27;65.66;102283.09;4967647;28;20405;-68
2021/12/11 01:23:26;;;;;;;3.85;0.80;;;;;;;6.18;66.61;102286.31;4971851;28;20479;-70
2021/12/11 01:25:53;;;;;;;2.78;0.85;;;;;;;6.11;66.56;102286.06;4960604;28;20443;-68
2021/12/11 01:28:19;;;;;;;;;;;;;;;6.05;66.54;102284.16;4977532;28;20106;-68
2021/12/11 01:30:46;;;;;;;2.47;1.20;;;;;;;5.99;66.75;102289.22;4968365;28;20338;-68
2021/12/11 01:33:13;;;;;;;6.97;1.35;;;;;;;5.91;67.34;102290.69;4971834;28;20031;-68
2021/12/11 01:35:41;;;;;;;4.47;1.58;;;;;;;5.85;67.75;102291.38;4984272;28;20023;-68
2021/12/11 01:38:19;;;;;;;4.75;1.63;;;;;;;5.81;67.80;102289.50;4970871;28;20460;-68
2021/12/11 01:40:50;;;;;;;8.95;2.00;;;;;;;5.75;67.84;102294.56;4958073;28;20450;-67
2021/12/11 01:43:20;;;;;;;2.58;1.20;;;;;;;5.65;69.30;102294.25;4973068;28;20062;-68
2021/12/11 01:45:49;;;;;;;3.85;1.42;;;;;;;5.60;69.05;102302.81;4958532;28;20042;-67
2021/12/11 01:48:24;;;;;;;2.75;1.42;;;;;;;5.60;68.94;102305.44;4960648;28;20117;-68
2021/12/11 01:51:20;;;;;;;3.97;1.45;;;;;;;5.56;69.44;102300.91;4975686;28;20030;-68
2021/12/11 01:53:55;;;;;;;3.08;1.13;;;;;;;5.56;68.54;102306.16;4959870;28;20041;-68
2021/12/11 01:56:26;;;;;;;2.90;1.10;;;;;;;5.48;69.63;102311.16;4965541;28;20015;-74
2021/12/11 01:59:10;;;;;;;3.25;1.50;;;;;;;5.47;69.30;102312.00;4965693;28;20046;-66
2021/12/11 02:01:46;;;;;;;3.75;1.30;;;;;;;5.44;70.82;102314.53;4963500;28;20036;-66
2021/12/11 02:04:15;;;;;;;4.13;1.50;;;;;;;5.41;70.63;102319.66;4965382;28;20469;-71
2021/12/11 02:06:44;;;;;;;3.75;1.75;;;;;;;5.41;69.88;102314.41;4965630;28;20034;-68
2021/12/11 02:09:21;;;;;;;4.03;1.60;;;;;;;5.35;70.43;102315.09;4971585;28;20597;-66
2021/12/11 02:11:51;;;;;;;4.55;1.70;;;;;;;5.29;70.87;102318.41;4960989;28;20109;-74
2021/12/11 02:14:26;;;;;;;4.85;1.63;;;;;;;5.24;71.09;102317.34;4979364;28;20045;-76
2021/12/11 02:16:55;;;;;;;4.10;1.80;;;;;;;5.21;71.83;102317.22;4969470;28;20050;-73
2021/12/11 02:19:32;;;;;;;7.32;1.60;;;;;;;5.16;72.78;102321.44;4973870;28;20030;-71
2021/12/11 02:22:00;;;;;;;3.80;1.30;;;;;;;5.16;72.54;102313.59;4962380;28;20035;-73
2021/12/11 02:24:42;;;;;;;6.55;1.48;;;;;;;5.17;72.86;102315.34;4963865;28;20035;-73
2021/12/11 02:27:16;;;;;;;4.45;1.30;;;;;;;5.12;72.17;102316.91;4973625;28;20085;-73
2021/12/11 02:29:50;;;;;;;3.38;1.35;;;;;;;5.10;72.79;102324.72;4966242;28;20451;-73
2021/12/11 02:32:31;;;;;;;4.03;1.67;;;;;;;5.04;73.26;102323.63;4970851;28;20043;-74
2021/12/11 02:35:22;;;;;;;4.03;1.60;;;;;;;5.02;72.70;102331.44;4971238;28;20031;-73
2021/12/11 02:37:54;;;;;;;5.88;1.60;;;;;;;4.92;76.84;102324.97;4973302;28;20482;-73
2021/12/11 02:40:29;;;;;;;4.15;1.30;;;;;;;4.89;75.83;102330.09;4972286;28;20391;-73
2021/12/11 02:43:08;;;;;;;5.65;1.55;;;;;;;5.00;76.49;102339.25;4966898;28;20111;-72
2021/12/11 02:45:43;;;;;;;3.65;1.50;;;;;;;4.97;74.80;102344.38;4963619;28;20414;-73
2021/12/11 02:48:28;;;;;;;4.57;1.52;;;;;;;4.92;75.21;102342.41;4970604;28;20034;-73
2021/12/11 02:51:17;;;;;;;4.93;1.60;;;;;;;4.85;74.87;102343.91;4966809;28;20030;-74
2021/12/11 02:53:54;;;;;;;3.72;1.42;;;;;;;4.77;75.68;102340.13;4967035;28;20080;-73
2021/12/11 02:56:36;;;;;;;3.92;1.40;;;;;;;4.71;74.96;102345.13;4972757;28;20451;-73
2021/12/11 02:59:08;;;;;;;4.75;1.50;;;;;;;4.67;74.78;102337.16;4975594;28;20030;-74
2021/12/11 03:01:49;;;;;;;5.78;1.40;;;;;;;4.64;74.63;102342.31;4963856;28;20113;-74
2021/12/11 03:04:35;;;;;;;2.50;1.35;;;;;;;4.60;75.38;102337.78;4969964;28;20037;-74
2021/12/11 03:07:06;;;;;;;5.50;1.48;;;;;;;4.60;75.80;102344.72;4969437;28;20039;-74
2021/12/11 03:09:36;;;;;;;4.50;1.60;;;;;;;4.57;75.62;102342.00;4973745;28;20034;-74
2021/12/11 03:12:06;;;;;;;4.40;2.00;;;;;;;4.50;74.92;102341.75;4966860;28;20030;-73
2021/12/11 03:14:32;;;;;;;8.43;1.90;;;;;;;4.47;75.47;102341.66;4974029;28;20029;-74
2021/12/11 03:17:00;;;;;;;3.47;1.92;;;;;;;4.43;75.25;102344.09;4969424;28;20034;-74
2021/12/11 03:19:29;;;;;;;5.20;2.05;;;;;;;4.39;74.89;102337.88;4962525;28;20085;-74
2021/12/11 03:21:58;;;;;;;6.05;1.95;;;;;;;4.28;75.37;102340.03;4963370;28;20480;-74
2021/12/11 03:24:26;;;;;;;4.78;1.98;;;;;;;4.24;75.33;102348.59;4966645;28;20042;-68
2021/12/11 03:26:53;;;;;;;3.60;1.77;;;;;;;4.18;75.68;102338.81;4977678;28;20042;-69
2021/12/11 03:29:20;;;;;;;2.85;1.65;;;;;;;4.14;75.39;102338.66;4976292;28;20133;-69
2021/12/11 03:31:47;;;;;;;4.55;2.13;;;;;;;4.09;75.94;102337.56;4974059;28;20069;-68
2021/12/11 03:34:20;;;;;;;5.47;2.03;;;;;;;4.01;76.39;102342.50;4972241;28;20083;-68
2021/12/11 03:36:47;;;;;;;4.15;1.85;;;;;;;3.97;76.43;102345.81;4970070;28;20023;-68
2021/12/11 03:39:21;;;;;;;;;;;;;;;3.90;76.74;102347.28;4965655;28;20035;-69
2021/12/11 03:41:49;;;;;;;4.45;2.20;;;;;;;3.84;76.51;102341.81;4971875;28;19953;-68
2021/12/11 03:44:16;;;;;;;5.93;2.50;;;;;;;3.79;76.41;102332.88;4965399;28;20097;-68
2021/12/11 03:46:50;;;;;;;8.55;2.70;;;;;;;3.76;76.48;102336.25;4964941;28;20115;-69
2021/12/11 03:49:22;;;;;;;17.42;2.78;;;;;;;3.68;76.45;102329.84;4964877;28;20028;-69
2021/12/11 03:51:52;;;;;;;7.82;2.40;;;;;;;3.66;76.53;102335.00;4962454;28;20439;-70
2021/12/11 03:54:28;;;;;;;6.22;2.10;;;;;;;3.61;76.82;102344.38;4970226;28;20046;-70
2021/12/11 03:56:55;;;;;;;5.38;2.22;;;;;;;3.57;76.56;102336.31;4971626;28;20039;-72
2021/12/11 03:59:21;;;;;;;5.55;2.42;;;;;;;3.52;77.27;102340.50;4992206;28;20034;-72
2021/12/11 04:02:01;;;;;;;9.63;2.70;;;;;;;3.49;77.25;102342.13;4962444;28;20109;-71
2021/12/11 04:04:32;;;;;;;6.57;2.30;;;;;;;3.46;77.25;102342.03;4969379;28;20043;-71
2021/12/11 04:07:01;;;;;;;4.05;2.13;;;;;;;3.46;77.66;102344.63;4974694;28;20019;-72
2021/12/11 04:09:28;;;;;;;5.50;1.67;;;;;;;3.48;77.73;102342.09;4965374;28;20045;-73
2021/12/11 04:11:55;;;;;;;2.97;1.52;;;;;;;3.52;77.69;102338.75;4965209;28;20050;-72
2021/12/11 04:14:23;;;;;;;;;;;;;;;3.53;77.24;102337.94;4970154;28;20050;-73
2021/12/11 04:16:52;;;;;;;4.00;1.60;;;;;;;3.51;76.97;102347.41;4976269;28;19918;-73
2021/12/11 04:19:19;;;;;;;4.10;1.98;;;;;;;3.47;76.55;102348.13;4977555;28;20073;-73
2021/12/11 04:21:46;;;;;;;3.22;1.60;;;;;;;3.44;77.83;102355.84;4974189;28;20430;-72
2021/12/11 04:24:15;;;;;;;3.55;1.60;;;;;;;3.42;77.20;102347.94;4983007;28;20027;-72
2021/12/11 04:26:42;;;;;;;2.38;1.38;;;;;;;3.41;76.90;102351.38;4960461;28;20026;-71
2021/12/11 04:29:08;;;;;;;;;;;;;;;3.38;77.09;102351.22;4976809;28;20034;-70
2021/12/11 04:31:37;;;;;;;4.15;1.77;;;;;;;3.33;77.21;102360.63;4960805;28;19922;-71
2021/12/11 04:34:07;;;;;;;4.35;2.15;;;;;;;3.25;77.65;102365.50;4958120;28;20349;-70
2021/12/11 04:36:45;;;;;;;6.72;2.05;;;;;;;3.21;77.50;102367.91;4969306;28;20110;-70
2021/12/11 04:39:12;;;;;;;;;;;;;;;3.17;77.91;102375.63;4982173;28;20038;-71
2021/12/11 04:41:49;;;;;;;3.85;2.25;;;;;;;3.12;77.23;102363.19;4966100;28;20001;-73
2021/12/11 04:44:31;;;;;;;4.80;2.58;;;;;;;3.06;77.95;102360.28;4971614;28;20466;-73
2021/12/11 04:46:57;;;;;;;3.92;1.95;;;;;;;3.02;77.81;102374.03;4985804;28;20042;-71
2021/12/11 04:49:40;;;;;;;3.55;1.80;;;;;;;2.96;78.11;102365.13;4972232;28;20034;-73
2021/12/11 04:52:54;;;;;;;5.72;2.50;;;;;;;2.92;77.74;102357.97;4971347;28;20481;-73
2021/12/11 04:58:12;;;;;;;3.58;2.30;;;;;;;2.86;78.25;102360.28;4960387;28;20126;-72
2021/12/11 05:03:45;;;;;;;5.65;2.22;;;;;;;2.80;77.71;102360.03;4963424;28;20543;-76
2021/12/11 05:09:14;;;;;;;4.80;1.90;;;;;;;2.72;78.82;102369.22;4971789;28;20348;-75
2021/12/11 05:11:49;;;;;;;4.85;2.17;;;;;;;2.65;78.76;102374.19;4976548;28;20054;-74
2021/12/11 05:14:17;;;;;;;3.17;1.83;;;;;;;2.60;79.11;102383.50;4978182;28;20040;-74
2021/12/11 05:16:43;;;;;;;4.07;2.05;;;;;;;2.54;79.49;102391.03;4973107;28;20434;-74
2021/12/11 05:19:11;;;;;;;3.85;2.08;;;;;;;2.49;79.57;102397.75;4968114;28;20367;-68
2021/12/11 05:21:37;;;;;;;4.78;1.92;;;;;;;2.44;79.63;102386.19;4957426;28;20105;-76
2021/12/11 05:24:06;;;;;;;3.63;2.15;;;;;;;2.39;79.84;102392.91;4974937;28;20061;-70
2021/12/11 05:26:33;;;;;;;5.30;2.60;;;;;;;2.36;79.58;102395.38;4966888;28;20532;-70
2021/12/11 05:29:00;;;;;;;3.72;1.80;;;;;;;2.29;79.42;102391.59;4961042;28;20043;-70
2021/12/11 05:31:27;;;;;;;2.80;1.77;;;;;;;2.27;79.35;102407.19;4975517;28;20463;-70
2021/12/11 05:33:52;;;;;;;;;;;;;;;2.25;80.07;102407.94;4970663;28;20085;-69
2021/12/11 05:36:20;;;;;;;3.28;1.50;;;;;;;2.23;79.85;102404.34;4970349;28;19915;-69
2021/12/11 05:38:48;;;;;;;6.65;1.92;;;;;;;2.20;79.70;102409.41;4963048;28;20107;-69
2021/12/11 05:41:18;;;;;;;5.50;1.95;;;;;;;2.22;80.19;102418.22;4968096;28;20444;-69
2021/12/11 05:43:45;;;;;;;3.03;1.80;;;;;;;2.25;80.30;102423.56;4969266;28;20030;-69
2021/12/11 05:46:14;;;;;;;2.75;1.63;;;;;;;2.26;80.66;102417.53;4973181;28;20085;-69
2021/12/11 05:48:42;;;;;;;3.10;1.48;;;;;;;2.26;79.91;102407.13;4959888;28;20070;-69
2021/12/11 05:51:10;;;;;;;3.28;1.67;;;;;;;2.26;79.61;102405.38;4969030;28;20121;-70
2021/12/11 05:53:37;;;;;;;7.13;1.63;;;;;;;2.28;79.68;102402.84;4963706;28;20482;-69
2021/12/11 05:56:10;;;;;;;6.00;1.80;;;;;;;2.27;79.85;102399.34;4962092;28;20367;-76
2021/12/11 06:01:22;;;;;;;6.28;2.47;;;;;;;2.27;79.96;102399.34;4975560;28;20035;-76
2021/12/11 06:03:49;;;;;;;5.97;1.77;;;;;;;2.23;79.76;102392.22;4967611;28;20065;-76
2021/12/11 06:06:15;;;;;;;4.15;1.38;;;;;;;2.23;79.94;102399.13;4958608;28;20042;-76
2021/12/11 06:08:42;;;;;;;4.07;1.75;;;;;;;2.21;79.55;102401.66;4969512;28;20351;-74
2021/12/11 06:11:10;;;;;;;3.50;1.58;;;;;;;2.20;80.14;102418.13;4962359;28;20470;-73
2021/12/11 06:13:37;;;;;;;5.65;2.00;;;;;;;2.17;80.05;102415.38;4963617;28;20368;-74
2021/12/11 06:16:05;;;;;;;3.47;1.75;;;;;;;2.12;80.02;102415.16;4969980;28;20486;-73
2021/12/11 06:18:31;;;;;;;2.55;1.77;;;;;;;2.07;79.92;102416.66;4965543;28;20038;-73
2021/12/11 06:20:57;;;;;;;6.05;2.25;;;;;;;2.04;80.24;102413.00;4956469;28;20023;-73
2021/12/11 06:23:24;;;;;;;4.95;1.70;;;;;;;1.97;80.36;102410.06;4965141;28;20132;-72
2021/12/11 06:25:53;;;;;;;7.07;1.77;;;;;;;1.96;80.94;102410.00;4971250;28;20042;-73
2021/12/11 06:28:20;;;;;;;5.10;1.77;;;;;;;1.93;80.81;102404.66;4967699;28;20028;-73
2021/12/11 06:30:46;;;;;;;4.65;2.03;;;;;;;1.89;80.70;102406.19;4970353;28;20459;-72
2021/12/11 06:33:13;;;;;;;5.75;2.92;;;;;;;1.86;80.80;102400.84;4967347;28;20042;-72
2021/12/11 06:35:51;;;;;;;5.32;2.03;;;;;;;1.85;81.07;102396.44;4974021;28;20027;-72
2021/12/11 06:38:22;;;;;;;4.30;1.98;;;;;;;1.84;81.69;102394.66;4963353;28;20058;-73
2021/12/11 06:40:49;;;;;;;3.05;1.98;;;;;;;1.82;81.96;102397.19;4961935;28;20106;-72
2021/12/11 06:43:16;;;;;;;4.90;2.08;;;;;;;1.78;81.44;102387.44;4970992;28;20031;-71
2021/12/11 06:45:43;;;;;;;2.67;1.60;;;;;;;1.75;82.02;102395.09;4980509;28;20035;-73
2021/12/11 06:48:09;;;;;;;;;;;;;;;1.73;82.87;102390.63;4968684;28;20027;-73
2021/12/11 06:50:36;;;;;;;6.75;2.08;;;;;;;1.73;82.60;102399.34;4969310;28;20405;-73
2021/12/11 06:53:08;;;;;;;4.80;1.80;;;;;;;1.70;82.42;102386.16;4969744;28;20022;-72
2021/12/11 06:55:35;;;;;;;4.53;1.45;;;;;;;1.72;82.25;102391.44;4973362;28;20069;-71
2021/12/11 06:58:01;;;;;;;6.72;2.20;;;;;;;1.72;82.29;102397.53;4969791;28;20027;-70
2021/12/11 07:00:28;;;;;;;5.07;2.22;;;;;;;1.71;82.34;102400.97;4965643;28;20031;-70
2021/12/11 07:02:55;;;;;;;3.28;1.40;;;;;;;1.71;82.08;102405.28;4977109;28;20031;-71
2021/12/11 07:05:21;;;;;;;3.97;1.60;;;;;;;1.69;82.19;102402.59;4955669;29;20471;-71
2021/12/11 07:07:48;;;;;;;4.55;2.03;;;;;;;1.64;82.03;102406.69;4955789;29;20035;-70
2021/12/11 07:10:19;;;;;;;3.13;1.23;;;;;;;1.62;82.06;102405.72;4961987;28;20023;-71
2021/12/11 07:12:47;;;;;;;3.28;1.48;;;;;;;1.63;82.41;102408.41;4973496;28;20113;-70
2021/12/11 07:15:14;;;;;;;2.58;1.55;;;;;;;1.60;82.00;102408.22;4966334;28;20031;-70
2021/12/11 07:17:40;;;;;;;5.88;1.75;;;;;;;1.59;82.61;102405.56;4963484;28;20058;-69
2021/12/11 07:20:10;;;;;;;3.22;2.03;;;;;;;1.59;82.31;102415.97;4980824;28;20030;-69
2021/12/11 07:22:40;;;;;;;6.22;1.70;;;;;;;1.57;82.39;102420.22;4976484;28;20038;-69
2021/12/11 07:25:40;;;;;;;6.78;1.75;;;;;;;1.58;82.69;102417.69;4969694;28;20118;-74
2021/12/11 07:28:08;;;;;;;3.53;1.70;;;;;;;1.58;82.67;102411.56;4973114;28;20581;-74
2021/12/11 07:30:36;;;;;;;3.53;1.52;;;;;;;1.58;83.29;102406.38;4977973;28;20045;-72
2021/12/11 07:33:04;;;;;;;5.50;2.10;;;;;;;1.58;83.36;102415.09;4976822;28;20430;-72
2021/12/11 07:35:33;;;;;;;3.50;1.80;;;;;;;1.59;83.59;102405.56;4975346;28;20022;-72
2021/12/11 07:38:00;;;;;;;4.75;2.10;;;;;;;1.59;83.67;102419.50;4977412;28;20077;-74
2021/12/11 07:40:35;;;;;;;5.55;2.25;;;;;;;1.60;83.07;102423.88;4975888;28;20451;-73
2021/12/11 07:43:01;;;;;;;3.78;1.65;;;;;;;1.60;83.26;102408.22;4976757;28;20031;-72
2021/12/11 07:45:28;;;;;;;2.17;1.40;;;;;;;1.61;83.57;102410.03;4967858;28;20060;-73
2021/12/11 07:47:54;;;;;;;;;;;;;;;1.62;84.09;102406.63;4971306;28;20031;-73
2021/12/11 07:50:22;;;;;;;5.63;1.63;;;;;;;1.63;84.19;102403.19;4962443;28;19922;-73
2021/12/11 07:52:48;;;;;;;6.47;1.63;;;;;;;1.65;84.43;102411.97;4977832;28;20026;-73
2021/12/11 07:55:15;;;;;;;3.22;1.50;;;;;;;1.64;84.65;102412.78;4976785;28;20031;-72
2021/12/11 07:57:42;;;;;;;3.33;1.65;;;;;;;1.64;84.85;102411.91;4973978;28;20059;-73
2021/12/11 08:00:11;;;;;;;5.60;2.15;;;;;;;1.64;85.01;102414.50;4976241;28;20398;-73
2021/12/11 08:02:38;;;;;;;5.28;1.92;;;;;;;1.64;84.40;102406.69;4987115;28;20489;-72
2021/12/11 08:05:05;;;;;;;2.65;1.35;;;;;;;1.62;84.51;102406.63;4990979;28;20374;-72
2021/12/11 08:07:31;;;;;;;5.20;1.67;;;;;;;1.62;84.87;102411.81;4992218;28;20066;-73
2021/12/11 08:09:57;;;;;;;3.38;1.50;;;;;;;1.60;84.54;102403.03;4977849;28;20031;-73
2021/12/11 08:12:24;;;;;;;2.85;1.40;;;;;;;1.59;85.41;102398.66;4958227;28;20075;-73
2021/12/11 08:14:51;;;;;;;7.00;1.80;;;;;;;1.60;84.95;102389.13;4990147;28;20109;-73
2021/12/11 08:17:19;;;;;;;2.63;1.40;;;;;;;1.61;85.46;102383.09;4968879;28;20058;-73
2021/12/11 08:19:45;;;;;;;6.13;1.73;;;;;;;1.63;85.60;102397.06;4965398;28;20066;-73
2021/12/11 08:22:12;;;;;;;3.90;1.77;;;;;;;1.68;85.88;102395.59;4967598;28;20038;-73
2021/12/11 08:24:39;;;;;;;5.30;1.50;;;;;;;1.70;85.79;102393.06;4977241;28;20039;-73
2021/12/11 08:27:14;;;;;;;3.63;1.63;;;;;;;1.69;85.75;102389.56;4992119;28;20065;-73
2021/12/11 08:29:45;;;;;;;4.40;1.50;;;;;;;1.72;85.61;102391.44;4989536;28;20027;-74
2021/12/11 08:32:12;;;;;;;3.50;1.38;;;;;;;1.73;85.91;102398.44;4965158;28;20043;-74
2021/12/11 08:34:39;;;;;;;6.22;1.70;;;;;;;1.74;85.66;102384.59;4975627;28;20039;-74
2021/12/11 08:37:08;;;;;;;5.13;1.40;;;;;;;1.74;85.82;102379.38;4972462;28;20023;-74
2021/12/11 08:39:36;;;;;;;3.40;1.33;;;;;;;1.73;85.54;102372.41;4966197;28;20092;-74
2021/12/11 08:42:05;;;;;;;2.85;1.55;;;;;;;1.74;85.89;102369.84;4975762;28;20027;-73
2021/12/11 08:44:38;;;;;;;4.10;1.73;;;;;;;1.74;85.79;102371.56;4975881;28;20046;-74
2021/12/11 08:47:08;;;;;;;5.13;1.60;;;;;;;1.73;86.10;102368.06;4979451;28;20027;-74
2021/12/11 08:49:39;;;;;;;4.82;1.60;;;;;;;1.73;86.25;102372.41;4971325;28;20467;-74
2021/12/11 08:52:20;;;;;;;6.32;1.38;;;;;;;1.74;86.12;102388.09;4973914;28;20057;-74
2021/12/11 08:54:47;;;;;;;4.68;1.83;;;;;;;1.76;86.60;102389.06;4977021;28;20035;-69
2021/12/11 08:57:19;;;;;;;3.15;1.40;;;;;;;1.79;86.35;102385.69;4962062;28;20035;-70
2021/12/11 08:59:51;;;;;;;4.28;1.30;;;;;;;1.81;86.44;102382.34;4976403;28;20038;-69
2021/12/11 09:02:26;;;;;;;2.17;1.23;;;;;;;1.84;86.50;102384.22;4972332;28;20039;-69
2021/12/11 09:05:06;;;;;;;8.10;1.55;;;;;;;1.88;86.50;102383.56;4971333;28;20121;-69
2021/12/11 09:07:40;;;;;;;3.42;1.30;;;;;;;1.92;86.52;102379.41;4972596;28;20110;-69
2021/12/11 09:10:36;;;;;;;5.25;1.42;;;;;;;1.96;86.38;102386.53;4973126;28;20407;-69
2021/12/11 09:13:06;;;;;;;2.70;1.40;;;;;;;1.98;86.27;102390.13;4962266;28;20039;-69
2021/12/11 09:15:41;;;;;;;7.70;1.48;;;;;;;1.99;85.93;102394.53;4970831;28;20027;-69
2021/12/11 09:18:13;;;;;;;4.95;1.75;;;;;;;2.02;86.32;102392.06;4972220;28;20022;-69
2021/12/11 09:20:53;;;;;;;5.13;2.08;;;;;;;2.05;85.79;102391.31;4962453;28;20061;-68
2021/12/11 09:23:38;;;;;;;3.83;1.58;;;;;;;2.05;85.60;102378.28;4968591;28;20105;-69
2021/12/11 09:26:11;;;;;;;2.45;1.25;;;;;;;2.07;85.60;102379.25;4975408;28;20026;-74
2021/12/11 09:28:49;;;;;;;4.03;1.45;;;;;;;2.08;85.77;102381.94;4973925;28;20058;-74
2021/12/11 09:31:27;;;;;;;3.63;1.27;;;;;;;2.08;85.64;102396.69;4975565;28;20027;-74
2021/12/11 09:34:02;;;;;;;3.85;1.35;;;;;;;2.09;85.44;102388.03;4970643;28;20023;-74
2021/12/11 09:36:33;;;;;;;3.58;2.08;;;;;;;2.07;85.44;102385.38;4960909;28;20415;-74
2021/12/11 09:39:15;;;;;;;5.00;1.40;;;;;;;2.10;85.80;102384.63;4981650;28;20042;-74
2021/12/11 09:41:41;;;;;;;7.47;1.65;;;;;;;2.10;85.48;102395.94;4973596;28;20027;-74
2021/12/11 09:44:12;;;;;;;2.47;1.47;;;;;;;2.10;85.27;102392.44;4968257;28;20029;-74
2021/12/11 09:47:16;;;;;;;2.97;1.50;;;;;;;2.12;85.09;102394.31;4964852;28;20035;-74
2021/12/11 09:49:58;;;;;;;3.28;1.30;;;;;;;2.11;85.22;102391.59;4972229;28;20035;-75
2021/12/11 09:52:27;;;;;;;3.42;1.95;;;;;;;2.10;85.57;102384.63;4977570;28;20065;-74
2021/12/11 09:55:09;;;;;;;3.58;1.50;;;;;;;2.08;85.15;102381.94;4964074;28;20038;-71
2021/12/11 09:57:40;;;;;;;3.00;1.35;;;;;;;2.10;85.41;102390.72;4971599;28;20019;-71
2021/12/11 10:00:16;;;;;;;3.08;1.20;;;;;;;2.08;85.23;102386.25;4975016;28;20118;-70
2021/12/11 10:02:43;;;;;;;3.38;1.70;;;;;;;2.09;85.16;102394.13;4955742;28;20035;-70
2021/12/11 10:05:29;;;;;;;3.97;1.55;;;;;;;2.04;85.09;102374.75;4984233;28;20065;-71
2021/12/11 10:11:18;;;;;;;5.90;1.50;;;;;;;2.03;85.08;102374.69;4969961;28;20038;-70
2021/12/11 10:14:03;;;;;;;4.03;1.25;;;;;;;2.00;85.34;102384.19;4974730;28;20035;-72
2021/12/11 10:16:35;;;;;;;3.78;1.33;;;;;;;1.98;85.05;102385.78;4970792;28;20029;-71
2021/12/11 10:19:02;;;;;;;2.35;1.25;;;;;;;1.95;84.93;102383.06;4973281;28;20073;-72
2021/12/11 10:21:46;;;;;;;2.83;1.30;;;;;;;1.93;85.21;102382.06;4973514;28;20370;-70
2021/12/11 10:24:18;;;;;;;2.80;1.25;;;;;;;1.91;84.97;102377.59;4973836;28;20031;-71
2021/12/11 10:26:45;;;;;;;3.15;1.70;;;;;;;1.89;85.31;102376.66;4973784;28;20055;-71
2021/12/11 10:29:13;;;;;;;3.72;1.75;;;;;;;1.89;85.42;102368.81;4963900;28;20032;-72
2021/12/11 10:31:45;;;;;;;2.85;1.25;;;;;;;1.87;85.35;102371.38;4975192;28;20049;-72
2021/12/11 10:34:16;;;;;;;3.53;1.38;;;;;;;1.86;85.46;102376.47;4969740;28;20114;-72
2021/12/11 10:36:49;;;;;;;4.28;1.63;;;;;;;1.80;85.23;102374.47;4977410;28;20058;-72
2021/12/11 10:39:17;;;;;;;6.88;2.35;;;;;;;1.75;85.70;102366.44;4960116;28;20031;-71
2021/12/11 10:41:44;;;;;;;6.60;1.60;;;;;;;1.75;85.79;102365.53;4959000;28;20085;-69
2021/12/11 10:44:26;;;;;;;2.65;1.27;;;;;;;1.71;85.71;102361.00;4959600;28;20054;-71
2021/12/11 10:47:01;;;;;;;4.57;1.40;;;;;;;1.66;86.22;102356.44;4973829;28;20031;-71
2021/12/11 10:49:28;;;;;;;3.45;1.50;;;;;;;1.66;86.05;102366.00;4972481;28;20085;-70
2021/12/11 10:52:03;;;;;;;3.20;1.73;;;;;;;1.65;86.35;102358.97;4970483;28;20027;-69
2021/12/11 10:54:32;;;;;;;7.55;1.85;;;;;;;1.63;86.51;102360.59;4967856;28;20407;-70
2021/12/11 10:56:59;;;;;;;2.75;1.67;;;;;;;1.62;85.88;102362.31;4978298;28;20026;-70
2021/12/11 10:59:29;;;;;;;5.07;1.40;;;;;;;1.57;85.99;102366.41;4976246;28;20054;-71
2021/12/11 11:02:07;;;;;;;7.45;2.15;;;;;;;1.57;86.10;102362.91;4978219;28;20431;-71
2021/12/11 11:04:39;;;;;;;3.97;1.25;;;;;;;1.52;86.36;102360.06;4974852;28;20169;-71
2021/12/11 11:07:06;;;;;;;6.72;1.45;;;;;;;1.48;86.26;102360.75;4968899;28;20485;-73
2021/12/11 11:09:33;;;;;;;2.97;1.52;;;;;;;1.45;86.61;102377.09;4977856;28;20022;-69
2021/12/11 11:12:03;;;;;;;4.50;1.85;;;;;;;1.41;86.67;102364.75;4977586;28;20031;-69
2021/12/11 11:14:31;;;;;;;5.82;1.48;;;;;;;1.36;86.89;102361.00;4977006;28;20132;-69
2021/12/11 11:17:02;;;;;;;4.78;1.67;;;;;;;1.36;86.52;102348.00;4976990;28;20493;-69
2021/12/11 11:19:30;;;;;;;4.15;1.70;;;;;;;1.33;87.14;102351.31;4975983;28;20030;-69
2021/12/11 11:22:03;;;;;;;4.78;1.70;;;;;;;1.30;86.80;102350.28;4987005;28;20034;-69
2021/12/11 11:24:33;;;;;;;2.80;1.48;;;;;;;1.27;86.86;102351.03;4976711;28;20031;-69
2021/12/11 11:27:01;;;;;;;6.45;2.00;;;;;;;1.27;87.09;102352.72;4974045;28;20035;-69
2021/12/11 11:29:28;;;;;;;5.43;1.60;;;;;;;1.25;87.21;102357.84;4972825;28;20041;-69
2021/12/11 11:32:02;;;;;;;5.22;1.85;;;;;;;1.22;87.18;102357.72;4991679;28;20105;-69
2021/12/11 11:34:31;;;;;;;3.45;1.27;;;;;;;1.21;86.95;102345.50;4977827;28;20469;-70
2021/12/11 11:37:02;;;;;;;8.15;1.55;;;;;;;1.21;87.37;102347.19;4976722;28;20114;-69
2021/12/11 11:39:29;;;;;;;3.95;1.48;;;;;;;1.19;87.46;102346.25;4976802;28;20054;-70
2021/12/11 11:42:01;;;;;;;3.03;1.48;;;;;;;1.17;87.45;102349.66;4978305;28;20022;-69
2021/12/11 11:44:30;;;;;;;4.13;1.25;;;;;;;1.17;87.18;102362.66;4975894;28;20037;-69
2021/12/11 11:46:59;;;;;;;4.28;1.33;;;;;;;1.15;87.39;102355.59;4976434;28;20031;-69
2021/12/11 11:49:27;;;;;;;6.07;1.83;;;;;;;1.13;87.58;102346.81;4977424;28;20058;-69
2021/12/11 11:51:56;;;;;;;7.82;1.60;;;;;;;1.09;87.44;102345.75;4965851;28;20038;-69
2021/12/11 11:54:26;;;;;;;5.25;1.58;;;;;;;1.08;87.60;102332.69;4978063;28;20034;-69
2021/12/11 11:56:59;;;;;;;4.40;1.38;;;;;;;1.07;87.91;102326.56;4967917;28;20031;-69
2021/12/11 11:59:26;;;;;;;4.45;1.58;;;;;;;1.07;87.89;102315.25;4966630;28;20115;-69
2021/12/11 12:02:00;;;;;;;3.05;1.17;;;;;;;1.05;88.39;102312.59;4968616;28;20026;-69
2021/12/11 12:04:29;;;;;;;5.10;1.60;;;;;;;1.03;87.69;102316.81;4967375;28;20463;-69
2021/12/11 12:07:00;;;;;;;3.75;1.40;;;;;;;1.00;88.03;102319.25;4976193;28;20324;-69
2021/12/11 12:09:29;;;;;;;5.85;1.52;;;;;;;0.99;87.89;102312.25;4973362;28;20033;-68
2021/12/11 12:11:58;;;;;;;6.90;1.70;;;;;;;0.98;87.81;102311.38;4971366;28;20161;-69
2021/12/11 12:14:30;;;;;;;5.28;1.42;;;;;;;0.97;88.33;102308.72;4976230;28;20030;-71